• Join FlightAware (Why Join?)
  • Login
  • US Flag 
06:10AM EST


 

Airport Tracker/Info


-or-


 

Live Flight TrackerFlight Track Log ✈ LAK807 ✈ 29-Aug-2014 ✈ KIAD - KBHB

Flight Track Log - Related Links

Times and Time Zones

All times are in EDT time to prevent confusion due to time zone crossing. See the LAK807 flight status page for this flight to view local times or setup timezone preferences in your user account.

Time Position Orientation Groundspeed Altitude Reporting Facility
EDT Latitude Longitude Course Direction KTS MPH feet Rate Location/Type
05:42PM 38.9833 -77.5500 345° North 236 272 3,700  Level Potomac TRACON
05:43PM 39.0333 -77.5667 345° North 255 293 6,700 2,580 Climbing Potomac TRACON
05:44PM 39.1000 -77.5167 30° Northeast 262 302 8,900 1,200 Climbing Potomac TRACON
05:46PM 39.1647 -77.3958 55° Northeast 283 326 9,900 360 Climbing Washington Center
05:47PM 39.2033 -77.3000 63° Northeast 297 342 9,900 660 Level Washington Center
05:48PM 39.2492 -77.2103 57° Northeast 301 346 11,300 1,680 Climbing Washington Center
05:49PM 39.2956 -77.1194 57° Northeast 302 348 13,400 1,620 Climbing Washington Center
05:50PM 39.3361 -76.9986 67° East 308 354 14,700 1,320 Climbing Washington Center
05:51PM 39.3200 -76.8861 100° East 316 364 16,200 960 Climbing Washington Center
05:52PM 39.3028 -76.7678 101° East 328 377 16,800 360 Climbing Washington Center
05:53PM 39.2611 -76.6564 116° Southeast 346 398 17,000 60 Climbing Washington Center
05:54PM 39.2056 -76.5569 126° Southeast 343 395 17,000 540 Level Washington Center
05:55PM 39.1514 -76.4608 126° Southeast 334 384 18,200 1,140 Climbing Washington Center
05:56PM 39.0969 -76.3636 126° Southeast 333 383 19,400 1,080 Climbing Washington Center
05:57PM 39.0694 -76.2286 105° East 345 397 20,500 960 Climbing Washington Center
05:58PM 39.1114 -76.1122 65° Northeast 355 409 21,500 840 Climbing Washington Center
05:59PM 39.1553 -75.9964 64° Northeast 359 413 22,300 780 Climbing Washington Center
06:00PM 39.2261 -75.9031 46° Northeast 367 422 23,200 1,020 Climbing Washington Center
06:01PM 39.2947 -75.8119 46° Northeast 362 417 24,500 1,560 Climbing Washington Center
06:02PM 39.3892 -75.7358 32° Northeast 334 384 26,400 1,620 Climbing Washington Center
06:03PM 39.4636 -75.6689 35° Northeast 329 379 27,900 1,500 Climbing Washington Center
06:04PM 39.5244 -75.5803 48° Northeast 330 380 29,500 1,500 Climbing Washington Center
06:05PM 39.5756 -75.4850 55° Northeast 328 377 31,100 1,320 Climbing Washington Center
06:06PM 39.6325 -75.3964 50° Northeast 324 373 32,300 1,140 Climbing Washington Center
06:07PM 39.6728 -75.3397 47° Northeast 318 366 32,900 900 Climbing New York Center
06:08PM 39.7325 -75.2464 50° Northeast 318 366 33,700 720 Climbing New York Center
06:09PM 39.7842 -75.1525 54° Northeast 333 383 34,400 780 Climbing New York Center
06:10PM 39.8278 -75.0844 50° Northeast 370 426 35,000 900 Climbing Washington Center
06:11PM 39.8956 -74.9819 49° Northeast 352 405 35,900 720 Climbing Washington Center
06:12PM 39.9597 -74.8828 50° Northeast 361 415 36,600 480 Climbing Washington Center
06:13PM 40.0217 -74.7819 51° Northeast 352 405 37,000 180 Climbing Washington Center
06:14PM 40.0883 -74.6750 51° Northeast 375 432 37,000  Level Washington Center
06:15PM 40.1581 -74.5644 50° Northeast 390 449 37,100 300 Climbing Washington Center
06:16PM 40.2311 -74.4611 47° Northeast 393 452 37,700 600 Climbing Washington Center
06:17PM 40.3172 -74.3367 48° Northeast 385 443 38,400 600 Climbing Washington Center
06:18PM 40.3867 -74.2339 48° Northeast 382 440 39,000 600 Climbing Washington Center
06:19PM 40.4561 -74.1336 48° Northeast 373 429 39,700 540 Climbing Washington Center
06:20PM 40.5236 -74.0375 47° Northeast 372 428 40,200 540 Climbing Washington Center
06:21PM 40.5917 -73.9372 48° Northeast 370 426 40,900 360 Climbing Washington Center
06:22PM 40.6731 -73.8156 49° Northeast 369 425 41,000  Climbing Washington Center
06:23PM 40.7689 -73.6678 49° Northeast 380 437 41,000  Level Boston Center
06:24PM 40.8408 -73.5628 48° Northeast 384 442 41,000  Level Boston Center
06:26PM 40.9128 -73.4544 49° Northeast 387 445 41,000  Level Boston Center
06:27PM 40.9983 -73.3253 49° Northeast 388 447 41,000  Level Boston Center
06:28PM 41.0700 -73.2161 49° Northeast 389 448 41,000  Level Boston Center
06:29PM 41.1431 -73.1056 49° Northeast 391 450 41,000  Level Boston Center
06:30PM 41.2161 -72.9947 49° Northeast 393 452 41,000  Level Boston Center
06:31PM 41.2900 -72.8808 49° Northeast 395 455 41,000  Level Boston Center
06:32PM 41.3656 -72.7747 46° Northeast 395 455 41,000  Level Boston Center
06:33PM 41.4439 -72.6747 44° Northeast 392 451 41,000  Level Boston Center
06:34PM 41.5353 -72.5492 46° Northeast 391 450 41,000  Level Boston Center
06:35PM 41.6114 -72.4467 45° Northeast 391 450 41,000  Level Boston Center
06:36PM 41.6889 -72.3433 45° Northeast 391 450 41,000  Level Boston Center
06:37PM 41.7647 -72.2411 45° Northeast 391 450 41,000  Level Boston Center
06:38PM 41.8403 -72.1383 45° Northeast 390 449 41,000  Level Boston Center
06:39PM 41.9167 -72.0353 45° Northeast 390 449 41,000  Level Boston Center
06:40PM 41.9933 -71.9303 45° Northeast 390 449 41,000  Level Boston Center
06:41PM 42.0839 -71.8044 46° Northeast 390 449 41,000  Level Boston Center
06:42PM 42.1617 -71.6997 45° Northeast 390 449 41,000  Level Boston Center
06:43PM 42.2386 -71.5947 45° Northeast 391 450 41,000  Level Boston Center
06:44PM 42.3147 -71.4889 46° Northeast 391 450 41,000  Level Boston Center
06:45PM 42.3978 -71.3739 46° Northeast 390 449 41,000  Level Boston Center
06:46PM 42.4728 -71.2681 46° Northeast 390 449 41,000  Level Boston Center
06:47PM 42.5481 -71.1617 46° Northeast 390 449 41,000  Level Boston Center
06:48PM 42.6233 -71.0564 46° Northeast 390 449 41,000  Level Boston Center
06:49PM 42.6989 -70.9503 46° Northeast 389 448 41,000  Level Boston Center
06:50PM 42.7742 -70.8453 46° Northeast 389 448 41,000  Level Boston Center
06:51PM 42.8625 -70.7192 46° Northeast 384 442 41,000 -600 Level Boston Center
06:52PM 42.9361 -70.6117 47° Northeast 385 443 39,800 -1,500 Descending Boston Center
06:53PM 42.9636 -70.4592 76° East 411 473 37,900 -2,040 Descending Boston Center
06:54PM 42.9914 -70.3164 75° East 395 455 35,700 -2,040 Descending Boston Center
06:55PM 43.0503 -70.2036 54° Northeast 366 421 33,800 -1,860 Descending Boston Center
06:57PM 43.1089 -70.0903 55° Northeast 365 420 31,900 -1,860 Descending Boston Center
06:58PM 43.1708 -69.9747 54° Northeast 373 429 30,000 -2,040 Descending Boston Center
06:59PM 43.2578 -69.8578 44° Northeast 367 422 27,700 -2,040 Descending Boston Center
07:00PM 43.3333 -69.7694 40° Northeast 363 418 25,800 -1,920 Descending Boston Center
07:01PM 43.4106 -69.6706 43° Northeast 362 417 23,800 -1,860 Descending Boston Center
07:02PM 43.4844 -69.5775 42° Northeast 361 415 22,000 -1,860 Descending Boston Center
07:03PM 43.5581 -69.4894 41° Northeast 352 405 20,100 -1,920 Descending Boston Center
07:04PM 43.6369 -69.3892 43° Northeast 348 400 18,100 -1,620 Descending Boston Center
07:05PM 43.6969 -69.3153 42° Northeast 330 380 16,800 -1,620 Descending Boston Center
07:06PM 43.7631 -69.2342 42° Northeast 321 369 14,900 -2,160 Descending Boston Center
07:07PM 43.8389 -69.1392 42° Northeast 306 352 12,400 -1,860 Descending Boston Center
07:08PM 43.8981 -69.0642 42° Northeast 290 334 11,100 -660 Descending Boston Center
07:09PM 43.9517 -68.9972 42° Northeast 264 304 11,100  Level Boston Center
07:10PM 44.0067 -68.9267 43° Northeast 266 306 11,100 -480 Level Boston Center
07:11PM 44.0628 -68.8572 42° Northeast 268 308 10,200 -1,320 Descending Boston Center
07:12PM 44.1219 -68.7825 42° Northeast 284 327 8,400 -1,800 Descending Boston Center
07:13PM 44.1781 -68.7094 43° Northeast 283 326 6,500 -1,860 Descending Boston Center
07:14PM 44.2339 -68.6394 42° Northeast 276 318 4,700 -1,620 Descending Boston Center
07:15PM 44.2942 -68.5617 43° Northeast 259 298 3,200 -780 Descending Boston Center
07:16PM 44.3306 -68.5097 46° Northeast 217 250 3,100 -120 Descending Boston Center
07:17PM 44.3714 -68.4664 37° Northeast 194 223 3,000 -540 Descending Boston Center
07:18PM 44.4214 -68.4336 25° Northeast 191 220 2,100 -720 Descending Boston Center
07:19PM 44.4733 -68.3919 30° Northeast 201 231 1,600 -540 Descending Boston Center
07:20PM 44.4975 -68.3464 53° Northeast 204 235 1,000 -660 Descending Boston Center
07:21PM 44.4642 -68.3531 188° South 160 184 300 -720 Descending Boston Center
07:23PM 44.4333 -68.3500 193° South  Level FlightAware Approximate